Time;durP1;ratioP1;P1;durP2;ratioP2;P2;SDS_P1;SDS_P2;PMS_P1;PMS_P2;Temp;Humidity;BMP_temperature;BMP_pressure;BME280_temperature;BME280_humidity;BME280_pressure;Samples;Min_cycle;Max_cycle;Signal;HPM_P1;HPM_P2
2022/07/25 00:02:21;;;;;;;10.40;9.07;;;22.10;98.20;;;;;;5102428;28;20129;-73
2022/07/25 00:04:46;;;;;;;10.27;9.27;;;22.00;98.40;;;;;;5103477;28;20024;-73
2022/07/25 00:07:12;;;;;;;10.82;9.77;;;22.00;98.60;;;;;;5095542;28;20024;-73
2022/07/25 00:09:38;;;;;;;9.65;8.65;;;22.10;98.80;;;;;;5108036;28;20437;-73
2022/07/25 00:12:04;;;;;;;9.30;8.23;;;22.00;98.80;;;;;;5098132;28;20278;-74
2022/07/25 00:14:29;;;;;;;9.75;8.75;;;22.00;98.80;;;;;;5106966;28;20429;-73
2022/07/25 00:16:55;;;;;;;10.38;8.57;;;22.00;99.00;;;;;;5097751;28;20082;-73
2022/07/25 00:19:20;;;;;;;10.75;8.73;;;21.90;99.00;;;;;;5103861;28;20047;-73
2022/07/25 00:21:46;;;;;;;10.07;9.15;;;21.90;99.00;;;;;;5106470;28;20035;-73
2022/07/25 00:24:12;;;;;;;10.48;9.35;;;21.90;99.30;;;;;;5111301;28;20027;-74
2022/07/25 00:26:37;;;;;;;9.73;8.82;;;21.80;99.40;;;;;;5101045;28;20032;-73
2022/07/25 00:29:03;;;;;;;9.30;8.32;;;21.80;99.70;;;;;;5104858;28;20612;-73
2022/07/25 00:31:29;;;;;;;9.65;8.75;;;21.70;99.90;;;;;;5101103;28;20047;-73
2022/07/25 00:33:54;;;;;;;9.27;8.38;;;21.70;99.90;;;;;;5102900;28;20387;-73
2022/07/25 00:36:20;;;;;;;9.32;8.43;;;21.60;99.90;;;;;;5103032;28;20036;-73
2022/07/25 00:38:45;;;;;;;9.85;8.95;;;21.60;99.90;;;;;;5106894;28;20464;-74
2022/07/25 00:41:11;;;;;;;10.13;9.18;;;21.50;99.90;;;;;;5102577;28;20078;-73
2022/07/25 00:43:37;;;;;;;9.70;8.70;;;21.50;99.90;;;;;;5106785;28;20496;-73
2022/07/25 00:46:02;;;;;;;9.65;8.80;;;21.50;99.90;;;;;;5102045;28;20030;-73
2022/07/25 00:48:28;;;;;;;9.60;8.60;;;21.50;99.90;;;;;;5112756;28;20049;-73
2022/07/25 00:50:58;;;;;;;9.25;8.38;;;21.50;99.90;;;;;;5103573;28;20548;-73
2022/07/25 00:53:24;;;;;;;;;;;21.50;99.90;;;;;;5105613;28;20028;-73
2022/07/25 00:55:50;;;;;;;8.70;7.90;;;21.50;99.90;;;;;;5092831;28;20272;-73
2022/07/25 00:58:17;;;;;;;8.93;8.05;;;21.50;99.90;;;;;;5104147;28;20058;-73
2022/07/25 01:00:43;;;;;;;9.07;8.20;;;21.40;99.90;;;;;;5103120;28;20032;-73
2022/07/25 01:03:09;;;;;;;11.68;8.48;;;21.40;99.90;;;;;;5106634;28;20051;-73
2022/07/25 01:05:34;;;;;;;10.18;9.07;;;21.40;99.90;;;;;;5100528;28;20115;-72
2022/07/25 01:08:01;;;;;;;9.70;8.80;;;21.40;99.90;;;;;;5104733;28;20038;-73
2022/07/25 01:10:30;;;;;;;9.90;8.93;;;21.30;99.90;;;;;;5103079;28;20032;-72
2022/07/25 01:12:55;;;;;;;10.45;8.55;;;21.30;99.90;;;;;;5102529;28;20051;-73
2022/07/25 01:15:23;;;;;;;10.00;9.05;;;21.20;99.90;;;;;;5101729;28;20476;-74
2022/07/25 01:17:48;;;;;;;9.63;8.73;;;21.20;99.90;;;;;;5105405;28;20106;-74
2022/07/25 01:20:18;;;;;;;9.50;8.50;;;21.10;99.90;;;;;;5098109;28;20473;-74
2022/07/25 01:22:44;;;;;;;9.25;8.35;;;21.10;99.90;;;;;;5102783;28;20024;-74
2022/07/25 01:25:12;;;;;;;9.07;8.23;;;21.00;99.90;;;;;;5101134;28;20040;-74
2022/07/25 01:27:38;;;;;;;10.57;9.40;;;21.00;99.90;;;;;;5089132;28;20378;-74
2022/07/25 01:30:06;;;;;;;10.50;8.70;;;20.90;99.90;;;;;;5098586;28;20141;-74
2022/07/25 01:32:32;;;;;;;10.07;9.07;;;20.90;99.90;;;;;;5108456;28;20031;-74
2022/07/25 01:34:58;;;;;;;9.73;8.75;;;20.90;99.90;;;;;;5102276;28;20034;-74
2022/07/25 01:37:23;;;;;;;10.73;9.52;;;20.80;99.90;;;;;;5106342;28;20020;-74
2022/07/25 01:39:49;;;;;;;9.93;8.93;;;20.80;99.90;;;;;;5101914;28;20380;-74
2022/07/25 01:42:15;;;;;;;9.13;8.30;;;20.80;99.90;;;;;;5107579;28;20465;-74
2022/07/25 01:44:40;;;;;;;9.60;8.68;;;20.90;99.90;;;;;;5079986;28;20028;-74
2022/07/25 01:47:06;;;;;;;10.57;9.57;;;20.90;99.90;;;;;;5098578;28;20023;-73
2022/07/25 01:49:32;;;;;;;9.38;8.52;;;20.90;99.90;;;;;;5107152;28;20123;-74
2022/07/25 01:51:57;;;;;;;9.80;8.35;;;20.90;99.90;;;;;;5103904;28;20032;-74
2022/07/25 01:54:23;;;;;;;10.15;9.15;;;20.80;99.90;;;;;;5101833;28;20035;-75
2022/07/25 01:56:49;;;;;;;9.80;8.80;;;20.80;99.90;;;;;;5101369;28;20034;-74
2022/07/25 01:59:15;;;;;;;9.73;8.75;;;20.80;99.90;;;;;;5104398;28;20385;-75
2022/07/25 02:01:41;;;;;;;9.75;8.82;;;20.80;99.90;;;;;;5100710;28;20024;-74
2022/07/25 02:04:07;;;;;;;10.70;8.20;;;20.80;99.90;;;;;;5099473;28;20240;-75
2022/07/25 02:06:34;;;;;;;9.35;8.27;;;20.80;99.90;;;;;;5106150;28;20353;-73
2022/07/25 02:09:00;;;;;;;9.18;8.27;;;20.80;99.90;;;;;;5104074;28;20031;-74
2022/07/25 02:11:26;;;;;;;9.55;8.50;;;20.80;99.90;;;;;;5105454;28;20027;-73
2022/07/25 02:13:52;;;;;;;9.85;8.95;;;20.70;99.90;;;;;;5099059;28;20380;-73
2022/07/25 02:16:17;;;;;;;9.38;8.57;;;20.70;99.90;;;;;;5108885;28;20031;-73
2022/07/25 02:18:44;;;;;;;9.43;8.38;;;20.70;99.90;;;;;;5098829;28;20052;-74
2022/07/25 02:21:10;;;;;;;10.15;8.43;;;20.70;99.90;;;;;;5101196;28;20030;-73
2022/07/25 02:23:36;;;;;;;9.45;8.43;;;20.60;99.90;;;;;;5107336;28;20023;-73
2022/07/25 02:26:03;;;;;;;12.93;9.38;;;20.60;99.90;;;;;;5102362;28;20047;-73
2022/07/25 02:28:29;;;;;;;9.23;8.43;;;20.50;99.90;;;;;;5098109;28;20441;-73
2022/07/25 02:30:54;;;;;;;9.68;8.73;;;20.50;99.90;;;;;;5102471;28;20063;-73
2022/07/25 02:33:20;;;;;;;8.98;8.10;;;20.50;99.90;;;;;;5107082;28;20028;-73
2022/07/25 02:35:46;;;;;;;11.32;9.30;;;20.40;99.90;;;;;;5103140;28;20118;-73
2022/07/25 02:38:18;;;;;;;12.65;8.65;;;20.40;99.90;;;;;;5102747;28;20043;-74
2022/07/25 02:40:45;;;;;;;9.95;8.70;;;20.40;99.90;;;;;;5090065;28;20388;-74
2022/07/25 02:43:10;;;;;;;10.43;9.32;;;20.40;99.90;;;;;;5081411;28;20028;-73
2022/07/25 02:45:36;;;;;;;9.50;8.57;;;20.30;99.90;;;;;;5107254;28;20030;-73
2022/07/25 02:48:02;;;;;;;10.02;9.07;;;20.30;99.90;;;;;;5104058;28;20027;-74
2022/07/25 02:50:27;;;;;;;10.45;9.30;;;20.30;99.90;;;;;;5108086;28;20517;-73
2022/07/25 02:52:53;;;;;;;10.57;9.48;;;20.20;99.90;;;;;;5103897;28;20384;-73
2022/07/25 02:55:19;;;;;;;10.75;9.65;;;20.20;99.90;;;;;;5088217;28;20047;-73
2022/07/25 02:57:44;;;;;;;11.00;9.63;;;20.10;99.90;;;;;;5102180;28;20047;-73
2022/07/25 03:00:11;;;;;;;11.00;9.90;;;20.10;99.90;;;;;;5099555;28;20019;-73
2022/07/25 03:02:37;;;;;;;10.45;9.48;;;20.10;99.90;;;;;;5104379;28;20353;-73
2022/07/25 03:05:07;;;;;;;15.88;10.95;;;20.10;99.90;;;;;;5102164;28;20092;-73
2022/07/25 03:07:32;;;;;;;11.80;10.45;;;20.00;99.90;;;;;;5107188;28;20460;-73
2022/07/25 03:09:58;;;;;;;11.80;9.80;;;20.10;99.90;;;;;;5104845;28;20070;-73
2022/07/25 03:12:24;;;;;;;12.50;10.90;;;20.00;99.90;;;;;;5092558;28;20039;-73
2022/07/25 03:14:49;;;;;;;10.93;9.95;;;20.00;99.90;;;;;;5110238;28;20047;-73
2022/07/25 03:17:15;;;;;;;10.05;9.18;;;20.00;99.90;;;;;;5106716;28;20115;-73
2022/07/25 03:19:41;;;;;;;11.40;9.88;;;20.00;99.90;;;;;;5107669;28;20043;-73
2022/07/25 03:22:06;;;;;;;10.63;9.52;;;20.00;99.90;;;;;;5104051;28;20168;-73
2022/07/25 03:24:32;;;;;;;10.50;9.60;;;20.00;99.90;;;;;;5108127;28;20031;-73
2022/07/25 03:26:58;;;;;;;10.77;9.32;;;20.00;99.90;;;;;;5100706;28;20036;-74
2022/07/25 03:29:23;;;;;;;10.02;9.10;;;20.00;99.90;;;;;;5106128;28;20108;-73
2022/07/25 03:31:49;;;;;;;10.65;9.30;;;20.00;99.90;;;;;;5109187;28;20031;-74
2022/07/25 03:34:14;;;;;;;9.85;8.95;;;19.90;99.90;;;;;;5108280;28;20042;-73
2022/07/25 03:36:40;;;;;;;10.20;9.23;;;19.90;99.90;;;;;;5105537;28;20385;-73
2022/07/25 03:39:06;;;;;;;9.95;8.95;;;19.80;99.90;;;;;;5103844;28;20032;-73
2022/07/25 03:41:31;;;;;;;9.57;8.63;;;19.80;99.90;;;;;;5106675;28;20088;-73
2022/07/25 03:43:57;;;;;;;9.48;8.48;;;19.80;99.90;;;;;;5109391;27;20023;-73
2022/07/25 03:46:22;;;;;;;9.88;8.88;;;19.80;99.90;;;;;;5101231;28;20038;-73
2022/07/25 03:48:48;;;;;;;10.07;9.05;;;19.80;99.90;;;;;;5106121;28;20163;-73
2022/07/25 03:51:14;;;;;;;10.02;9.00;;;19.70;99.90;;;;;;5108350;28;20022;-73
2022/07/25 03:56:24;;;;;;;11.38;9.82;;;19.80;99.90;;;;;;5093221;28;20077;-75
2022/07/25 03:58:49;;;;;;;10.13;9.13;;;19.80;99.90;;;;;;5104405;28;20431;-74
2022/07/25 04:01:15;;;;;;;9.65;8.65;;;19.80;99.90;;;;;;5110526;28;20667;-74
2022/07/25 04:03:41;;;;;;;12.00;10.00;;;19.80;99.90;;;;;;5099910;28;20035;-74
2022/07/25 04:06:07;;;;;;;9.95;9.00;;;19.90;99.90;;;;;;5098461;28;20110;-74
2022/07/25 04:08:32;;;;;;;9.60;8.60;;;19.90;99.90;;;;;;5106188;28;20441;-74
2022/07/25 04:10:58;;;;;;;10.82;8.98;;;19.90;99.90;;;;;;5107629;28;20028;-73
2022/07/25 04:13:23;;;;;;;10.20;9.20;;;19.90;99.90;;;;;;5104761;28;20028;-73
2022/07/25 04:15:49;;;;;;;10.25;9.25;;;19.90;99.90;;;;;;5108353;28;20023;-74
2022/07/25 04:18:15;;;;;;;10.15;9.25;;;19.80;99.90;;;;;;5101916;28;20060;-74
2022/07/25 04:20:40;;;;;;;10.63;9.15;;;19.80;99.90;;;;;;5081219;28;20037;-74
2022/07/25 04:23:06;;;;;;;9.90;8.90;;;19.90;99.90;;;;;;5077480;28;20032;-74
2022/07/25 04:25:32;;;;;;;9.15;8.30;;;19.90;99.90;;;;;;5077800;28;20493;-74
2022/07/25 04:27:57;;;;;;;10.13;9.02;;;19.90;99.90;;;;;;5074301;28;20048;-75
2022/07/25 04:30:23;;;;;;;9.73;8.70;;;19.90;99.90;;;;;;5080456;28;20029;-73
2022/07/25 04:32:48;;;;;;;9.80;8.80;;;20.00;99.90;;;;;;5084256;28;20031;-73
2022/07/25 04:35:14;;;;;;;9.15;8.30;;;20.10;99.90;;;;;;5083673;28;20039;-74
2022/07/25 04:37:39;;;;;;;9.75;8.85;;;20.20;99.90;;;;;;5081153;28;21286;-73
2022/07/25 04:40:05;;;;;;;10.50;9.40;;;20.30;99.90;;;;;;5079082;28;20024;-73
2022/07/25 04:42:31;;;;;;;9.52;8.63;;;20.40;99.90;;;;;;5081813;28;20097;-74
2022/07/25 04:44:57;;;;;;;10.77;9.48;;;20.40;99.90;;;;;;5074033;28;20049;-74
2022/07/25 04:47:22;;;;;;;10.15;9.13;;;20.50;99.90;;;;;;5076731;28;20024;-73
2022/07/25 04:49:48;;;;;;;9.13;8.32;;;20.60;99.90;;;;;;5058054;28;20472;-74
2022/07/25 04:52:13;;;;;;;9.90;8.43;;;20.60;99.90;;;;;;5079287;28;20033;-74
2022/07/25 04:54:39;;;;;;;9.88;8.93;;;20.70;99.90;;;;;;5079310;28;20115;-74
2022/07/25 04:57:05;;;;;;;10.05;8.50;;;20.80;99.90;;;;;;5076646;28;20040;-74
2022/07/25 04:59:30;;;;;;;8.63;7.82;;;20.90;99.90;;;;;;5071659;28;20032;-73
2022/07/25 05:01:56;;;;;;;9.43;8.63;;;21.00;99.90;;;;;;5079284;28;20036;-74
2022/07/25 05:04:22;;;;;;;8.75;7.95;;;21.10;99.90;;;;;;5076406;28;20072;-74
2022/07/25 05:06:47;;;;;;;9.07;8.18;;;21.10;99.90;;;;;;5084344;28;21204;-74
2022/07/25 05:09:13;;;;;;;12.23;9.00;;;21.20;99.90;;;;;;5077553;28;20035;-74
2022/07/25 05:11:38;;;;;;;10.05;9.15;;;21.30;99.90;;;;;;5078129;28;20024;-74
2022/07/25 05:14:04;;;;;;;9.65;8.65;;;21.40;99.90;;;;;;5080798;28;20074;-74
2022/07/25 05:16:30;;;;;;;10.52;9.50;;;21.60;99.90;;;;;;5080283;28;20044;-74
2022/07/25 05:18:55;;;;;;;10.77;9.68;;;21.70;99.90;;;;;;5082986;28;20071;-72
2022/07/25 05:21:21;;;;;;;13.32;9.48;;;21.90;99.90;;;;;;5104374;28;20772;-72
2022/07/25 05:23:46;;;;;;;12.27;10.32;;;22.10;99.90;;;;;;5104645;28;20044;-71
2022/07/25 05:26:12;;;;;;;11.70;10.52;;;22.20;99.90;;;;;;5085453;28;20034;-71
2022/07/25 05:28:38;;;;;;;13.48;10.73;;;22.30;99.90;;;;;;5099805;28;20027;-71
2022/07/25 05:31:04;;;;;;;12.20;9.63;;;22.40;99.90;;;;;;5101339;28;20449;-71
2022/07/25 05:33:29;;;;;;;10.77;9.63;;;22.50;99.90;;;;;;5098873;28;20035;-71
2022/07/25 05:35:55;;;;;;;11.52;10.32;;;22.60;99.90;;;;;;5101666;28;20353;-73
2022/07/25 05:38:21;;;;;;;11.50;10.32;;;22.70;99.90;;;;;;5103835;28;20524;-71
2022/07/25 05:40:46;;;;;;;11.48;9.88;;;22.80;99.90;;;;;;5101641;28;20445;-73
2022/07/25 05:43:12;;;;;;;12.07;9.70;;;22.90;99.90;;;;;;5101486;28;20052;-71
2022/07/25 05:45:37;;;;;;;11.13;9.90;;;23.00;99.90;;;;;;5106009;28;20031;-71
2022/07/25 05:48:03;;;;;;;10.82;9.65;;;23.10;99.90;;;;;;5097692;28;20054;-69
2022/07/25 05:50:29;;;;;;;16.63;11.45;;;23.20;99.90;;;;;;5092273;28;20100;-76
2022/07/25 05:52:55;;;;;;;11.50;10.40;;;23.30;99.90;;;;;;5092049;28;20377;-71
2022/07/25 05:55:21;;;;;;;14.13;10.38;;;23.40;99.90;;;;;;5092237;28;20032;-72
2022/07/25 05:57:47;;;;;;;16.02;11.27;;;23.60;99.90;;;;;;5077488;28;20024;-72
2022/07/25 06:00:13;;;;;;;12.15;10.10;;;23.70;99.90;;;;;;5092890;28;20476;-71
2022/07/25 06:02:38;;;;;;;11.35;10.25;;;23.80;99.90;;;;;;5092649;28;20027;-71
2022/07/25 06:05:04;;;;;;;12.95;11.57;;;23.80;99.90;;;;;;5082072;28;20032;-72
2022/07/25 06:07:30;;;;;;;12.98;10.65;;;23.90;99.90;;;;;;5089551;28;20031;-72
2022/07/25 06:09:55;;;;;;;11.02;9.93;;;24.00;99.90;;;;;;5094983;28;20016;-72
2022/07/25 06:12:21;;;;;;;12.13;10.68;;;24.10;99.90;;;;;;5086600;28;20464;-71
2022/07/25 06:14:46;;;;;;;11.13;9.82;;;24.20;99.90;;;;;;5085835;28;20055;-70
2022/07/25 06:17:12;;;;;;;16.67;11.60;;;24.30;99.90;;;;;;5086753;28;20123;-70
2022/07/25 06:19:37;;;;;;;14.07;10.57;;;24.50;99.80;;;;;;5080864;28;20059;-71
2022/07/25 06:22:03;;;;;;;21.13;11.57;;;24.60;99.60;;;;;;5085741;28;20020;-74
2022/07/25 06:24:29;;;;;;;16.90;12.70;;;24.70;99.10;;;;;;5087690;28;20028;-71
2022/07/25 06:26:54;;;;;;;15.00;11.60;;;24.90;98.80;;;;;;5090479;28;20036;-71
2022/07/25 06:29:20;;;;;;;13.85;10.32;;;25.10;98.50;;;;;;5083793;28;20050;-70
2022/07/25 06:31:46;;;;;;;13.48;10.70;;;25.20;97.80;;;;;;5078441;28;20490;-70
2022/07/25 06:34:11;;;;;;;11.93;10.45;;;25.30;97.60;;;;;;5085935;28;20032;-70
2022/07/25 06:36:37;;;;;;;10.13;9.13;;;25.50;97.00;;;;;;5091769;28;20032;-71
2022/07/25 06:39:03;;;;;;;10.10;9.05;;;25.60;96.70;;;;;;5089193;28;20528;-71
2022/07/25 06:41:28;;;;;;;10.32;9.32;;;25.60;96.30;;;;;;5100381;28;20027;-70
2022/07/25 06:43:54;;;;;;;9.75;8.75;;;25.80;95.80;;;;;;5103014;28;20043;-71
2022/07/25 06:46:19;;;;;;;10.10;9.07;;;25.90;95.60;;;;;;5096591;28;20042;-71
2022/07/25 06:48:45;;;;;;;13.20;10.15;;;26.00;95.80;;;;;;5085795;28;20106;-72
2022/07/25 06:51:11;;;;;;;11.13;9.95;;;26.20;95.40;;;;;;5103714;28;20491;-72
2022/07/25 06:53:36;;;;;;;12.45;9.45;;;26.40;95.70;;;;;;5104461;28;20078;-73
2022/07/25 06:56:02;;;;;;;11.02;9.48;;;26.60;95.60;;;;;;5105327;28;20032;-74
2022/07/25 06:58:28;;;;;;;11.27;9.10;;;26.80;95.10;;;;;;5086945;28;20036;-70
2022/07/25 07:00:54;;;;;;;12.27;9.80;;;26.80;95.10;;;;;;5097227;28;20491;-71
2022/07/25 07:03:19;;;;;;;11.65;9.63;;;27.00;94.90;;;;;;5097036;28;20031;-71
2022/07/25 07:05:45;;;;;;;14.57;9.80;;;27.10;94.50;;;;;;5096295;28;20024;-71
2022/07/25 07:08:10;;;;;;;10.15;8.90;;;27.20;94.60;;;;;;5093568;28;20071;-72
2022/07/25 07:10:36;;;;;;;9.95;8.85;;;27.40;94.20;;;;;;5096848;28;20055;-73
2022/07/25 07:13:08;;;;;;;10.05;8.73;;;27.40;94.20;;;;;;5094633;28;20436;-71
2022/07/25 07:15:35;;;;;;;10.38;9.13;;;27.50;94.40;;;;;;5092290;28;20384;-71
2022/07/25 07:18:01;;;;;;;10.02;9.00;;;27.60;94.10;;;;;;5085548;28;20032;-72
2022/07/25 07:20:26;;;;;;;10.48;8.50;;;27.80;92.00;;;;;;5094940;28;20052;-71
2022/07/25 07:22:52;;;;;;;9.35;8.45;;;27.90;91.60;;;;;;5101677;28;20039;-71
2022/07/25 07:25:20;;;;;;;9.25;8.30;;;28.00;91.50;;;;;;5096306;28;20063;-72
2022/07/25 07:27:46;;;;;;;9.52;8.52;;;28.10;91.10;;;;;;5088954;28;20122;-72
2022/07/25 07:30:15;;;;;;;10.10;8.00;;;28.20;90.90;;;;;;5098529;28;20028;-71
2022/07/25 07:32:42;;;;;;;10.33;9.00;;;28.40;90.60;;;;;;5095105;28;20107;-72
2022/07/25 07:35:08;;;;;;;10.75;9.07;;;28.60;91.00;;;;;;5100754;28;20028;-72
2022/07/25 07:37:34;;;;;;;9.80;8.95;;;28.70;90.50;;;;;;5088654;28;20032;-72
2022/07/25 07:39:59;;;;;;;10.23;9.20;;;28.90;90.20;;;;;;5095563;28;20382;-72
2022/07/25 07:42:25;;;;;;;12.35;8.70;;;29.10;89.40;;;;;;5097050;28;20031;-72
2022/07/25 07:44:51;;;;;;;9.75;8.77;;;29.20;88.40;;;;;;5096613;28;20558;-72
2022/07/25 07:47:16;;;;;;;9.77;8.63;;;29.30;87.70;;;;;;5093768;28;20031;-72
2022/07/25 07:49:42;;;;;;;10.70;9.10;;;29.40;87.20;;;;;;5087348;28;20025;-72
2022/07/25 07:52:08;;;;;;;9.48;8.57;;;29.50;86.80;;;;;;5092800;28;20144;-72
2022/07/25 07:57:18;;;;;;;10.63;9.52;;;29.60;86.00;;;;;;5081423;28;20046;-71
2022/07/25 07:59:44;;;;;;;9.98;9.07;;;29.70;85.60;;;;;;5094860;28;20523;-71
2022/07/25 08:02:09;;;;;;;12.65;10.25;;;29.80;85.80;;;;;;5095083;28;20028;-71
2022/07/25 08:04:35;;;;;;;9.32;8.43;;;29.90;84.90;;;;;;5089627;28;20021;-71
2022/07/25 08:07:01;;;;;;;12.85;9.15;;;30.00;84.70;;;;;;5091361;28;20178;-71
2022/07/25 08:09:26;;;;;;;9.65;8.65;;;30.10;84.20;;;;;;5098632;28;20031;-72
2022/07/25 08:11:52;;;;;;;9.95;8.95;;;30.30;82.80;;;;;;5097011;28;20035;-71
2022/07/25 08:14:18;;;;;;;11.15;9.70;;;30.40;82.00;;;;;;5087693;28;20055;-72
2022/07/25 08:16:43;;;;;;;9.77;8.82;;;30.50;81.10;;;;;;5084208;28;20077;-71
2022/07/25 08:19:09;;;;;;;12.55;9.48;;;30.60;80.90;;;;;;5083242;28;20079;-71
2022/07/25 08:21:35;;;;;;;10.60;9.60;;;30.80;80.60;;;;;;5088450;28;20024;-72
2022/07/25 08:24:00;;;;;;;10.57;9.52;;;30.90;79.70;;;;;;5087643;28;20033;-72
2022/07/25 08:26:26;;;;;;;11.35;9.45;;;30.90;79.70;;;;;;5091294;28;20728;-71
2022/07/25 08:28:52;;;;;;;10.77;9.68;;;31.00;79.40;;;;;;5100064;27;20491;-71
2022/07/25 08:31:18;;;;;;;10.38;9.30;;;31.10;78.50;;;;;;5088970;28;20457;-72
2022/07/25 08:33:44;;;;;;;10.20;9.30;;;31.20;78.20;;;;;;5083485;28;20027;-71
2022/07/25 08:36:10;;;;;;;10.65;9.27;;;31.30;77.70;;;;;;5090861;28;20040;-72
2022/07/25 08:38:36;;;;;;;12.25;8.10;;;31.30;77.40;;;;;;5089428;28;20169;-72
2022/07/25 08:41:03;;;;;;;11.20;8.98;;;31.40;76.30;;;;;;5093276;28;20103;-72
2022/07/25 08:43:32;;;;;;;10.50;8.90;;;31.60;75.60;;;;;;5091669;28;20465;-72
2022/07/25 08:46:00;;;;;;;9.53;8.63;;;31.70;74.70;;;;;;5092731;28;20030;-72
2022/07/25 08:48:26;;;;;;;9.65;8.43;;;31.80;74.80;;;;;;5085340;28;20069;-71
2022/07/25 08:50:53;;;;;;;9.95;9.05;;;32.00;74.60;;;;;;5090071;28;20447;-72
2022/07/25 08:53:20;;;;;;;14.75;8.07;;;32.10;74.00;;;;;;5099897;28;20099;-71
2022/07/25 08:55:46;;;;;;;9.48;8.60;;;32.10;73.60;;;;;;5086174;28;20168;-71
2022/07/25 08:58:14;;;;;;;9.95;8.80;;;32.30;73.20;;;;;;5084646;28;20055;-71
2022/07/25 09:00:41;;;;;;;9.23;8.32;;;32.40;72.00;;;;;;5096113;28;20024;-72
2022/07/25 09:03:07;;;;;;;9.55;7.90;;;32.40;70.80;;;;;;5097543;28;20055;-72
2022/07/25 09:05:35;;;;;;;8.38;7.57;;;32.50;69.60;;;;;;5094668;28;20056;-71
2022/07/25 09:08:11;;;;;;;9.13;8.23;;;32.60;69.00;;;;;;5092111;28;20119;-72
2022/07/25 09:10:38;;;;;;;12.30;7.75;;;32.70;67.60;;;;;;5090113;28;20026;-71
2022/07/25 09:13:09;;;;;;;8.05;7.30;;;32.80;66.90;;;;;;5095690;28;20059;-72
2022/07/25 09:15:38;;;;;;;9.20;8.30;;;32.90;66.40;;;;;;5096281;28;20034;-72
2022/07/25 09:18:12;;;;;;;8.40;7.70;;;33.00;66.20;;;;;;5093405;28;20021;-72
2022/07/25 09:20:44;;;;;;;8.85;8.13;;;33.00;66.00;;;;;;5094342;28;20040;-73
2022/07/25 09:23:26;;;;;;;9.40;8.60;;;33.20;65.50;;;;;;5093540;28;20020;-73
2022/07/25 09:25:51;;;;;;;9.48;8.52;;;33.20;65.40;;;;;;5088782;28;20494;-72
2022/07/25 09:28:18;;;;;;;8.70;8.00;;;33.20;65.40;;;;;;5082182;28;20043;-72
2022/07/25 09:30:59;;;;;;;8.77;8.07;;;33.20;64.40;;;;;;5094351;28;20024;-72
2022/07/25 09:33:27;;;;;;;8.93;7.85;;;33.30;64.20;;;;;;5090415;28;20280;-72
2022/07/25 09:35:54;;;;;;;8.70;7.90;;;33.40;64.70;;;;;;5088378;28;20469;-71
2022/07/25 09:38:21;;;;;;;8.32;7.63;;;33.50;63.50;;;;;;5095112;28;20035;-71
2022/07/25 09:41:01;;;;;;;8.73;7.90;;;33.60;63.60;;;;;;5089339;28;20381;-72
2022/07/25 09:43:40;;;;;;;10.60;7.97;;;33.70;62.50;;;;;;5075708;28;20024;-72
2022/07/25 09:46:08;;;;;;;9.00;8.20;;;33.80;62.60;;;;;;5086923;28;20032;-72
2022/07/25 09:48:35;;;;;;;9.15;8.15;;;33.80;62.80;;;;;;5088059;28;20075;-75
2022/07/25 09:51:01;;;;;;;8.75;7.93;;;33.90;62.70;;;;;;5092823;28;20111;-72
2022/07/25 09:53:28;;;;;;;8.02;7.35;;;34.00;62.20;;;;;;5084515;28;20099;-72
2022/07/25 09:55:55;;;;;;;8.98;8.00;;;34.10;62.40;;;;;;5088298;28;20046;-72
2022/07/25 09:58:22;;;;;;;8.70;7.93;;;34.10;61.60;;;;;;5094138;28;20557;-72
2022/07/25 10:00:49;;;;;;;8.50;7.72;;;34.10;61.80;;;;;;5086550;28;20495;-72
2022/07/25 10:03:34;;;;;;;8.90;8.10;;;34.20;62.10;;;;;;5090569;28;20096;-72
2022/07/25 10:06:06;;;;;;;9.07;8.27;;;34.20;61.40;;;;;;5083056;28;20032;-72
2022/07/25 10:08:36;;;;;;;10.63;8.02;;;34.30;61.90;;;;;;5095899;28;20119;-72
2022/07/25 10:11:04;;;;;;;10.63;8.45;;;34.40;61.50;;;;;;5085978;28;20028;-72
2022/07/25 10:13:35;;;;;;;9.32;8.25;;;34.40;61.00;;;;;;5099004;28;20031;-71
2022/07/25 10:16:01;;;;;;;10.48;8.77;;;34.40;61.50;;;;;;5092141;28;20066;-71
2022/07/25 10:18:28;;;;;;;12.73;8.30;;;34.40;62.00;;;;;;5088529;28;20016;-72
2022/07/25 10:21:09;;;;;;;8.57;7.75;;;34.40;61.90;;;;;;5090008;28;20028;-71
2022/07/25 10:23:36;;;;;;;10.15;8.65;;;34.50;61.40;;;;;;5094015;28;20031;-71
2022/07/25 10:26:20;;;;;;;9.52;8.63;;;34.40;61.20;;;;;;5095770;28;20040;-70
2022/07/25 10:28:48;;;;;;;9.88;8.52;;;34.40;60.50;;;;;;5063995;28;20033;-71
2022/07/25 10:31:14;;;;;;;9.57;8.68;;;34.30;60.60;;;;;;5100264;28;20426;-71
2022/07/25 10:33:41;;;;;;;8.98;7.85;;;34.30;60.60;;;;;;5093453;28;20044;-71
2022/07/25 10:36:07;;;;;;;9.82;8.57;;;34.30;60.90;;;;;;5080443;28;20093;-71
2022/07/25 10:38:33;;;;;;;8.90;8.00;;;34.50;60.70;;;;;;5098323;28;20099;-71
2022/07/25 10:41:03;;;;;;;10.38;8.48;;;34.60;60.20;;;;;;5096759;28;20100;-71
2022/07/25 10:43:36;;;;;;;8.35;7.55;;;34.70;60.30;;;;;;5096339;28;20345;-71
2022/07/25 10:46:11;;;;;;;9.43;8.52;;;34.70;59.70;;;;;;5086593;28;20114;-71
2022/07/25 10:48:37;;;;;;;10.82;8.85;;;34.80;59.80;;;;;;5088915;28;20036;-71
2022/07/25 10:51:10;;;;;;;9.48;8.20;;;34.90;58.80;;;;;;5088744;28;20032;-71
2022/07/25 10:53:44;;;;;;;12.02;8.13;;;34.90;59.40;;;;;;5088992;28;20028;-71
2022/07/25 10:56:18;;;;;;;8.65;7.82;;;34.90;59.00;;;;;;5090862;28;20085;-72
2022/07/25 10:59:00;;;;;;;10.57;8.07;;;35.00;59.00;;;;;;5101622;28;20377;-71
2022/07/25 11:01:31;;;;;;;8.60;7.80;;;35.00;58.10;;;;;;5086653;28;20020;-72
2022/07/25 11:04:13;;;;;;;8.77;7.45;;;35.10;58.60;;;;;;5092147;28;20461;-72
2022/07/25 11:06:41;;;;;;;8.55;7.55;;;35.20;58.50;;;;;;5094964;28;20403;-71
2022/07/25 11:09:16;;;;;;;9.32;7.55;;;35.40;57.60;;;;;;5085042;28;20500;-72
2022/07/25 11:11:47;;;;;;;8.90;8.15;;;35.70;57.60;;;;;;5080952;28;20427;-70
2022/07/25 11:14:18;;;;;;;8.82;8.07;;;35.80;57.50;;;;;;5088577;28;20062;-71
2022/07/25 11:16:45;;;;;;;8.05;7.10;;;35.80;58.90;;;;;;5096554;28;20036;-71
2022/07/25 11:19:23;;;;;;;9.35;7.78;;;35.90;55.90;;;;;;5089593;28;20475;-71
2022/07/25 11:21:51;;;;;;;8.32;7.53;;;35.70;56.00;;;;;;5090205;28;20384;-70
2022/07/25 11:24:17;;;;;;;7.20;6.50;;;35.60;56.10;;;;;;5087204;28;20430;-71
2022/07/25 11:26:44;;;;;;;10.10;7.40;;;35.50;56.40;;;;;;5095314;28;20040;-71
2022/07/25 11:29:18;;;;;;;9.50;7.15;;;35.60;55.60;;;;;;5089848;28;20032;-72
2022/07/25 11:31:50;;;;;;;12.32;7.63;;;35.80;55.70;;;;;;5093555;28;20016;-71
2022/07/25 11:34:17;;;;;;;7.63;6.93;;;36.00;54.80;;;;;;5093927;28;20063;-71
2022/07/25 11:36:42;;;;;;;7.18;6.57;;;36.30;54.60;;;;;;5090195;28;20461;-72
2022/07/25 11:39:08;;;;;;;7.97;7.07;;;36.70;53.80;;;;;;5102839;28;20020;-71
2022/07/25 11:41:34;;;;;;;8.02;6.78;;;36.90;54.10;;;;;;5103411;28;20023;-72
2022/07/25 11:43:59;;;;;;;11.10;6.75;;;37.00;53.40;;;;;;5091173;28;20033;-71
2022/07/25 11:46:25;;;;;;;8.00;6.95;;;37.00;53.00;;;;;;5095209;28;20032;-71
2022/07/25 11:49:01;;;;;;;7.57;6.10;;;36.90;52.70;;;;;;5081198;28;20063;-71
2022/07/25 11:51:36;;;;;;;11.73;6.57;;;36.70;53.30;;;;;;5089045;28;20078;-71
2022/07/25 11:54:08;;;;;;;7.18;6.55;;;36.90;53.20;;;;;;5098307;28;20424;-74
2022/07/25 11:56:37;;;;;;;8.75;6.85;;;37.10;53.30;;;;;;5094814;28;20126;-72
2022/07/25 11:59:03;;;;;;;10.10;7.07;;;37.50;53.30;;;;;;5092427;28;20028;-72
2022/07/25 12:01:37;;;;;;;7.25;6.57;;;37.80;51.90;;;;;;5091639;28;20107;-70
2022/07/25 12:04:13;;;;;;;9.07;6.95;;;38.00;51.80;;;;;;5096624;28;20074;-71
2022/07/25 12:06:39;;;;;;;9.90;7.15;;;38.20;52.20;;;;;;5085317;28;20106;-71
2022/07/25 12:09:19;;;;;;;7.25;6.65;;;38.40;51.30;;;;;;5089360;28;20035;-71
2022/07/25 12:11:45;;;;;;;7.07;6.57;;;38.50;50.70;;;;;;5095057;28;20029;-71
2022/07/25 12:14:11;;;;;;;7.18;6.43;;;38.50;51.10;;;;;;5091729;28;20081;-70
2022/07/25 12:16:37;;;;;;;9.95;6.30;;;38.30;50.70;;;;;;5094476;28;20431;-70
2022/07/25 12:19:08;;;;;;;7.07;6.38;;;38.20;51.10;;;;;;5088281;28;20508;-72
2022/07/25 12:21:36;;;;;;;7.13;5.97;;;38.00;51.10;;;;;;5092396;28;20093;-72
2022/07/25 12:24:02;;;;;;;7.80;7.10;;;37.90;50.80;;;;;;5096589;28;20036;-72
2022/07/25 12:26:27;;;;;;;7.50;6.80;;;38.00;50.90;;;;;;5092924;28;20389;-72
2022/07/25 12:28:53;;;;;;;7.70;6.47;;;38.10;50.20;;;;;;5090344;28;20396;-70
2022/07/25 12:31:19;;;;;;;7.07;6.38;;;38.20;50.90;;;;;;5086866;28;20028;-71
2022/07/25 12:33:44;;;;;;;6.70;6.18;;;38.10;50.80;;;;;;5087757;28;20448;-71
2022/07/25 12:36:13;;;;;;;7.82;6.20;;;38.00;51.00;;;;;;5085979;28;20473;-71
2022/07/25 12:38:39;;;;;;;7.47;6.32;;;37.80;51.00;;;;;;5088502;28;20035;-70
2022/07/25 12:41:05;;;;;;;11.05;6.70;;;37.80;50.60;;;;;;5087017;28;20094;-71
2022/07/25 12:43:30;;;;;;;6.68;6.07;;;37.80;51.20;;;;;;5089350;28;20027;-71
2022/07/25 12:45:56;;;;;;;6.88;6.18;;;37.50;50.50;;;;;;5089285;28;20370;-71